.
WxDataArchive / Data Records for 2011-06-15
2011-06-14 June 2011 2011-06-16

Data Records for Wednesday, 15 June 2011

Time	Temp	Chill	HIndex	Humid	Dewpt	 Wind 	HiWind	WindDir	Rain 	Barom 
-----	----	-----	------	-----	-----	------	------	-------	-----	----- 
00:00	63.1	63.1	63.1	60	49.0	1	4	68	0.00	29.995 
00:05	62.9	62.9	62.9	61	49.2	1	4	45	0.00	29.995 
00:10	62.7	62.7	62.7	61	49.1	1	5	68	0.00	29.995 
00:15	62.6	62.6	62.6	61	49.0	1	6	68	0.00	29.997 
00:20	62.4	62.4	62.4	61	48.8	2	5	112	0.00	29.997 
00:25	62.4	62.4	62.4	61	48.8	2	4	68	0.00	29.997 
00:30	62.3	62.3	62.3	61	48.7	1	4	90	0.00	29.996 
00:35	62.1	62.1	62.1	62	48.9	1	4	90	0.00	29.996 
00:40	62.0	62.0	62.0	62	48.8	1	4	90	0.00	29.996 
00:45	61.8	61.8	61.8	62	48.6	1	3	68	0.00	30.007 
00:50	61.6	61.6	61.6	63	48.9	0	2	68	0.00	30.007 
00:55	61.5	61.5	61.5	63	48.8	0	3	68	0.00	30.007 
01:00	61.3	61.3	61.3	64	49.0	0	0	---	0.00	30.012 
01:05	61.2	61.2	61.2	64	48.9	0	0	---	0.00	30.012 
01:10	61.0	61.0	61.0	64	48.7	1	3	90	0.00	30.012 
01:15	61.0	61.0	61.0	65	49.1	0	0	---	0.00	30.013 
01:20	60.9	60.9	60.9	65	49.1	0	0	---	0.00	30.013 
01:25	60.7	60.7	60.7	65	48.9	0	0	---	0.00	30.013 
01:30	60.5	60.5	60.5	65	48.7	0	0	---	0.00	30.016 
01:35	60.2	60.2	60.2	66	48.8	0	0	---	0.00	30.016 
01:40	59.9	59.9	59.9	68	49.3	0	0	---	0.00	30.016 
01:45	59.6	59.6	59.6	69	49.4	0	0	---	0.00	30.009 
01:50	59.5	59.5	59.5	69	49.3	0	0	---	0.00	30.009 
01:55	59.2	59.2	59.2	70	49.4	0	1	90	0.00	30.009 
02:00	59.0	59.0	59.0	71	49.6	0	0	---	0.00	29.995 
02:05	58.7	58.7	58.7	72	49.7	0	1	90	0.00	29.995 
02:10	58.6	58.6	58.6	72	49.6	0	0	---	0.00	29.995 
02:15	58.4	58.4	58.4	72	49.4	0	1	90	0.00	29.978 
02:20	58.4	58.4	58.4	72	49.4	0	2	90	0.00	29.978 
02:25	58.3	58.3	58.3	73	49.7	0	1	90	0.00	29.978 
02:30	58.3	58.3	58.3	73	49.7	0	2	90	0.00	29.973 
02:35	58.3	58.3	58.3	73	49.7	0	1	90	0.00	29.973 
02:40	58.1	58.1	58.1	73	49.5	0	0	---	0.00	29.973 
02:45	58.0	58.0	58.0	73	49.4	0	2	90	0.00	29.972 
02:50	57.8	57.8	57.8	73	49.2	1	3	90	0.00	29.972 
02:55	57.6	57.6	57.6	73	49.0	0	2	90	0.00	29.972 
03:00	57.5	57.5	57.5	74	49.3	0	2	90	0.00	29.966 
03:05	57.3	57.3	57.3	73	48.7	1	3	90	0.00	29.966 
03:10	57.3	57.3	57.3	73	48.7	2	5	90	0.00	29.966 
03:15	57.3	57.3	57.3	73	48.7	3	5	90	0.00	29.945 
03:20	57.3	57.3	57.3	73	48.7	3	6	90	0.00	29.945 
03:25	57.2	57.2	57.2	73	48.6	2	7	90	0.00	29.945 
03:30	57.2	57.2	57.2	73	48.6	2	5	90	0.00	29.943 
03:35	57.0	57.0	57.0	73	48.4	1	3	90	0.00	29.943 
03:40	56.9	56.9	56.9	73	48.3	1	4	90	0.00	29.943 
03:45	56.9	56.9	56.9	73	48.3	0	3	68	0.00	29.953 
03:50	56.9	56.9	56.9	73	48.3	1	3	68	0.00	29.953 
03:55	56.7	56.7	56.7	73	48.1	1	4	68	0.00	29.953 
04:00	56.7	56.7	56.7	73	48.1	1	3	68	0.00	29.948 
04:05	56.9	56.9	56.9	73	48.3	1	3	68	0.00	29.948 
04:10	56.7	56.7	56.7	73	48.1	2	5	90	0.00	29.948 
04:15	56.7	56.7	56.7	73	48.1	2	5	90	0.00	29.931 
04:20	56.5	56.5	56.5	74	48.3	3	5	90	0.00	29.931 
04:25	56.2	56.2	56.2	75	48.4	2	4	68	0.00	29.931 
04:30	56.0	56.0	56.0	75	48.2	2	6	68	0.00	29.928 
04:35	55.9	55.9	55.9	76	48.4	1	4	68	0.00	29.928 
04:40	55.9	55.9	55.9	76	48.4	0	1	68	0.00	29.928 
04:45	55.9	55.9	55.9	75	48.1	1	3	68	0.00	29.933 
04:50	55.9	55.9	55.9	75	48.1	1	4	68	0.00	29.933 
04:55	55.7	55.7	55.7	76	48.3	1	3	68	0.00	29.933 
05:00	55.7	55.7	55.7	76	48.3	0	2	68	0.00	29.914 
05:05	55.6	55.6	55.6	77	48.5	1	3	68	0.00	29.914 
05:10	55.4	55.4	55.4	77	48.3	1	2	68	0.00	29.914 
05:15	55.3	55.3	55.3	77	48.2	2	4	68	0.00	29.901 
05:20	55.3	55.3	55.3	77	48.2	2	5	68	0.00	29.901 
05:25	55.3	55.3	55.3	77	48.2	2	5	68	0.00	29.901 
05:30	55.1	55.1	55.1	78	48.4	1	4	68	0.00	29.912 
05:35	55.1	55.1	55.1	78	48.4	1	3	68	0.00	29.912 
05:40	55.1	55.1	55.1	78	48.4	1	3	68	0.00	29.912 
05:45	55.1	55.1	55.1	78	48.4	1	4	90	0.00	29.935 
05:50	55.1	55.1	55.1	78	48.4	1	3	90	0.00	29.935 
05:55	55.1	55.1	55.1	78	48.4	0	1	90	0.00	29.935 
06:00	55.1	55.1	55.1	79	48.7	0	0	---	0.00	29.932 
06:05	55.0	55.0	55.0	79	48.6	0	2	90	0.00	29.932 
06:10	55.0	55.0	55.0	79	48.6	0	2	90	0.00	29.932 
06:15	55.0	55.0	55.0	79	48.6	1	3	90	0.00	29.921 
06:20	55.1	55.1	55.1	79	48.7	2	4	90	0.00	29.921 
06:25	55.3	55.3	55.3	79	48.9	2	4	90	0.00	29.921 
06:30	55.4	55.4	55.4	79	49.0	2	4	68	0.00	29.891 
06:35	55.4	55.4	55.4	80	49.3	2	5	90	0.00	29.891 
06:40	55.4	55.4	55.4	80	49.3	1	6	45	0.00	29.891 
06:45	55.4	55.4	55.4	80	49.3	2	4	45	0.00	29.893 
06:50	55.4	55.4	55.4	80	49.3	2	4	68	0.00	29.893 
06:55	55.6	55.6	55.6	80	49.5	1	3	68	0.00	29.893 
07:00	55.6	55.6	55.6	80	49.5	0	3	68	0.00	29.900 
07:05	55.6	55.6	55.6	80	49.5	0	2	68	0.00	29.900 
07:10	55.6	55.6	55.6	81	49.9	1	4	68	0.00	29.900 
07:15	55.6	55.6	55.6	81	49.9	1	3	68	0.00	29.886 
07:20	55.6	55.6	55.6	81	49.9	2	4	68	0.00	29.886 
07:25	55.7	55.7	55.7	81	50.0	2	5	90	0.00	29.886 
07:30	55.7	55.7	55.7	81	50.0	2	6	90	0.00	29.867 
07:35	55.9	55.9	55.9	81	50.2	2	5	68	0.00	29.867 
07:40	56.0	56.0	56.0	81	50.3	2	6	90	0.00	29.867 
07:45	56.2	56.2	56.2	81	50.4	3	7	90	0.00	29.867 
07:50	56.3	56.3	56.3	81	50.5	2	6	68	0.00	29.867 
07:55	56.5	56.5	56.5	81	50.7	1	3	68	0.00	29.867 
08:00	56.6	56.6	56.6	81	50.8	0	3	90	0.00	29.894 
08:05	56.7	56.7	56.7	81	50.9	0	3	90	0.00	29.894 
08:10	56.9	56.9	56.9	81	51.1	0	2	112	0.00	29.894 
08:15	57.0	57.0	57.0	81	51.2	0	4	112	0.00	29.904 
08:20	57.2	57.2	57.2	81	51.4	0	4	112	0.00	29.904 
08:25	57.3	57.3	57.3	80	51.2	1	3	90	0.00	29.904 
08:30	57.5	57.5	57.5	80	51.4	1	3	112	0.00	29.891 
08:35	57.6	57.6	57.6	80	51.5	0	2	90	0.00	29.891 
08:40	57.8	57.8	57.8	80	51.7	0	2	90	0.00	29.891 
08:45	58.0	58.0	58.0	80	51.9	0	2	90	0.00	29.905 
08:50	58.1	58.1	58.1	79	51.6	0	2	90	0.00	29.905 
08:55	58.3	58.3	58.3	79	51.8	0	2	90	0.00	29.905 
09:00	58.4	58.4	58.4	79	51.9	1	3	68	0.00	29.902 
09:05	58.4	58.4	58.4	79	51.9	0	1	270	0.00	29.902 
09:10	58.6	58.6	58.6	79	52.1	0	3	22	0.00	29.902 
09:15	58.7	58.7	58.7	79	52.2	1	4	90	0.00	29.904 
09:20	58.9	58.9	58.9	78	52.0	1	3	68	0.00	29.904 
09:25	59.0	59.0	59.0	78	52.1	1	2	68	0.00	29.904 
09:30	59.0	59.0	59.0	78	52.1	0	2	68	0.00	29.919 
09:35	59.2	59.2	59.2	78	52.3	0	1	68	0.00	29.919 
09:40	59.2	59.2	59.2	79	52.7	0	0	---	0.00	29.919 
09:45	59.2	59.2	59.2	79	52.7	0	0	---	0.00	29.962 
09:50	59.2	59.2	59.2	80	53.0	0	1	68	0.00	29.962 
09:55	59.2	59.2	59.2	81	53.4	0	0	---	0.00	29.962 
10:00	59.2	59.2	59.2	81	53.4	0	0	---	0.00	29.964 
10:05	59.0	59.0	59.0	82	53.5	0	0	---	0.00	29.964 
10:10	59.0	59.0	59.0	84	54.2	0	0	---	0.01	29.964 
10:15	58.9	58.9	58.9	84	54.1	0	0	---	0.00	29.968 
10:20	58.6	58.6	58.6	85	54.1	0	0	---	0.00	29.968 
10:25	58.6	58.6	58.6	87	54.7	0	1	68	0.01	29.968 
10:30	58.4	58.4	58.4	88	54.9	0	1	68	0.00	29.953 
10:35	58.3	58.3	58.3	89	55.1	0	0	---	0.00	29.953 
10:40	58.3	58.3	58.3	89	55.1	0	1	68	0.01	29.953 
10:45	58.1	58.1	58.1	90	55.2	0	1	68	0.00	29.939 
10:50	58.1	58.1	58.1	90	55.2	0	2	68	0.01	29.939 
10:55	58.1	58.1	58.1	91	55.5	0	1	68	0.00	29.939 
11:00	58.1	58.1	58.1	91	55.5	0	2	68	0.01	29.935 
11:05	58.1	58.1	58.1	91	55.5	0	2	68	0.01	29.935 
11:10	58.1	58.1	58.1	92	55.8	0	1	68	0.01	29.935 
11:15	58.3	58.3	58.3	92	56.0	0	2	68	0.00	29.938 
11:20	58.3	58.3	58.3	92	56.0	0	2	68	0.01	29.938 
11:25	58.3	58.3	58.3	92	56.0	0	3	90	0.01	29.938 
11:30	58.3	58.3	58.3	92	56.0	0	2	90	0.00	29.924 
11:35	58.4	58.4	58.4	92	56.1	0	4	68	0.01	29.924 
11:40	58.4	58.4	58.4	93	56.4	0	2	68	0.00	29.924 
11:45	58.4	58.4	58.4	93	56.4	0	2	135	0.00	29.907 
11:50	58.6	58.6	58.6	93	56.6	0	2	135	0.00	29.907 
11:55	58.6	58.6	58.6	93	56.6	1	4	90	0.00	29.907 
12:00	58.6	58.6	58.6	93	56.6	1	4	112	0.01	29.888 
12:05	58.7	58.7	58.7	93	56.7	1	4	112	0.00	29.888 
12:10	58.9	58.9	58.9	93	56.9	1	5	68	0.01	29.888 
12:15	58.9	58.9	58.9	93	56.9	2	5	90	0.00	29.877 
12:20	59.0	59.0	59.0	93	57.0	2	6	112	0.00	29.877 
12:25	59.0	59.0	59.0	93	57.0	2	5	90	0.01	29.877 
12:30	59.2	59.2	59.2	93	57.2	2	6	90	0.00	29.855 
12:35	59.2	59.2	59.2	93	57.2	3	10	90	0.00	29.855 
12:40	59.3	59.3	59.3	93	57.3	3	7	90	0.01	29.855 
12:45	59.3	59.3	59.3	92	57.0	3	7	90	0.00	29.824 
12:50	59.5	59.5	59.5	92	57.2	4	9	90	0.00	29.824 
12:55	59.5	59.5	59.5	92	57.2	6	13	90	0.01	29.824 
13:00	59.5	59.5	59.5	92	57.2	9	18	90	0.00	29.709 
13:05	59.5	59.5	59.5	92	57.2	7	14	90	0.01	29.709 
13:10	59.8	59.8	59.8	92	57.5	4	10	90	0.00	29.709 
13:15	59.9	59.9	59.9	92	57.6	3	9	90	0.00	29.751 
13:20	60.4	60.4	60.4	92	58.1	3	7	90	0.00	29.751 
13:25	60.7	60.7	60.7	92	58.4	3	7	90	0.00	29.751 
13:30	61.2	61.2	61.2	92	58.9	3	12	112	0.00	29.770 
13:35	62.0	62.0	62.0	92	59.6	3	7	90	0.00	29.770 
13:40	62.4	62.4	62.4	90	59.4	4	13	90	0.00	29.770 
13:45	63.1	63.1	63.1	88	59.5	3	10	90	0.00	29.781 
13:50	63.4	63.4	63.4	86	59.1	4	14	112	0.00	29.781 
13:55	63.7	63.7	63.7	84	58.8	3	9	90	0.00	29.781 
14:00	63.9	63.9	63.9	84	59.0	3	6	68	0.00	29.779 
14:05	64.0	64.0	64.0	83	58.7	3	5	90	0.00	29.779 
14:10	64.2	64.2	64.2	82	58.6	2	9	112	0.00	29.779 
14:15	64.3	64.3	64.3	81	58.3	3	7	90	0.00	29.776 
14:20	64.3	64.3	64.3	81	58.3	3	10	90	0.00	29.776 
14:25	64.3	64.3	64.3	80	58.0	2	4	112	0.00	29.776 
14:30	64.2	64.2	64.2	79	57.5	2	6	90	0.00	29.797 
14:35	64.0	64.0	64.0	80	57.7	1	5	90	0.00	29.797 
14:40	64.0	64.0	64.0	81	58.0	0	1	90	0.00	29.797 
14:45	64.0	64.0	64.0	81	58.0	0	2	22	0.00	29.827 
14:50	63.9	63.9	63.9	81	57.9	0	1	22	0.00	29.827 
14:55	63.9	63.9	63.9	82	58.3	0	1	22	0.00	29.827 
15:00	63.9	63.9	63.9	83	58.6	0	1	22	0.00	29.834 
15:05	63.9	63.9	63.9	84	59.0	0	0	---	0.00	29.834 
15:10	63.9	63.9	63.9	85	59.3	0	0	---	0.01	29.834 
15:15	63.7	63.7	63.7	86	59.4	0	1	22	0.00	29.852 
15:20	63.7	63.7	63.7	87	59.8	0	1	22	0.00	29.852 
15:25	63.7	63.7	63.7	88	60.1	0	1	22	0.01	29.852 
15:30	63.9	63.9	63.9	88	60.3	0	1	22	0.00	29.847 
15:35	63.7	63.7	63.7	88	60.1	0	1	22	0.00	29.847 
15:40	63.7	63.7	63.7	89	60.4	0	0	---	0.00	29.847 
15:45	63.7	63.7	63.7	89	60.4	0	1	22	0.00	29.847 
15:50	63.5	63.5	63.5	89	60.2	0	1	22	0.00	29.847 
15:55	63.5	63.5	63.5	89	60.2	0	1	22	0.00	29.847 
16:00	63.4	63.4	63.4	88	59.8	1	3	22	0.00	29.842 
16:05	63.2	63.2	63.2	88	59.6	1	4	135	0.00	29.842 
16:10	63.1	63.1	63.1	88	59.5	1	3	68	0.00	29.842 
16:15	63.1	63.1	63.1	88	59.5	0	2	90	0.00	29.830 
16:20	62.9	62.9	62.9	88	59.3	1	2	90	0.00	29.830 
16:25	62.9	62.9	62.9	88	59.3	1	4	68	0.00	29.830 
16:30	62.9	62.9	62.9	88	59.3	0	2	68	0.00	29.821 
16:35	62.9	62.9	62.9	88	59.3	1	3	68	0.00	29.821 
16:40	62.7	62.7	62.7	88	59.1	1	3	68	0.00	29.821 
16:45	62.9	62.9	62.9	88	59.3	1	3	68	0.00	29.817 
16:50	63.1	63.1	63.1	88	59.5	1	4	68	0.00	29.817 
16:55	63.2	63.2	63.2	87	59.3	2	4	68	0.00	29.817 
17:00	63.5	63.5	63.5	87	59.6	1	4	68	0.00	29.809 
17:05	63.5	63.5	63.5	85	58.9	1	4	68	0.00	29.809 
17:10	63.7	63.7	63.7	85	59.1	1	3	112	0.00	29.809 
17:15	63.7	63.7	63.7	85	59.1	0	2	112	0.00	29.807 
17:20	63.9	63.9	63.9	84	59.0	1	4	112	0.00	29.807 
17:25	64.0	64.0	64.0	85	59.4	1	3	112	0.00	29.807 
17:30	64.3	64.3	64.3	84	59.4	0	3	112	0.00	29.803 
17:35	64.7	64.7	64.7	84	59.7	0	2	112	0.00	29.803 
17:40	64.7	64.7	64.7	83	59.4	1	4	112	0.00	29.803 
17:45	64.8	64.8	64.8	83	59.5	0	2	135	0.00	29.799 
17:50	65.0	65.0	65.0	82	59.4	1	4	135	0.00	29.799 
17:55	65.2	65.2	65.2	81	59.2	1	4	90	0.00	29.799 
18:00	65.2	65.2	65.2	81	59.2	2	6	112	0.00	29.799 
18:05	65.2	65.2	65.2	81	59.2	2	7	90	0.00	29.799 
18:10	65.2	65.2	65.2	81	59.2	2	6	90	0.00	29.799 
18:15	65.2	65.2	65.2	81	59.2	1	3	90	0.00	29.798 
18:20	65.5	65.5	65.5	80	59.2	1	3	90	0.00	29.798 
18:25	65.5	65.5	65.5	80	59.2	1	5	90	0.00	29.798 
18:30	65.6	65.6	65.6	79	58.9	1	5	90	0.00	29.796 
18:35	65.6	65.6	65.6	79	58.9	1	4	112	0.00	29.796 
18:40	65.6	65.6	65.6	78	58.5	2	5	90	0.00	29.796 
18:45	65.6	65.6	65.6	77	58.2	1	6	112	0.00	29.796 
18:50	65.8	65.8	65.8	77	58.4	1	3	112	0.00	29.796 
18:55	66.0	66.0	66.0	77	58.6	1	2	45	0.00	29.796 
19:00	66.1	66.1	66.1	77	58.7	2	6	90	0.00	29.796 
19:05	66.0	66.0	66.0	77	58.6	3	6	90	0.00	29.796 
19:10	66.0	66.0	66.0	77	58.6	2	10	112	0.00	29.796 
19:15	66.0	66.0	66.0	77	58.6	2	5	90	0.00	29.792 
19:20	66.1	66.1	66.1	77	58.7	2	6	90	0.00	29.792 
19:25	66.3	66.3	66.3	78	59.2	1	6	90	0.00	29.792 
19:30	66.4	66.4	66.4	77	59.0	3	7	112	0.00	29.785 
19:35	66.4	66.4	66.4	77	59.0	1	4	135	0.00	29.785 
19:40	66.4	66.4	66.4	77	59.0	1	5	90	0.00	29.785 
19:45	66.3	66.3	66.3	77	58.9	0	3	90	0.00	29.783 
19:50	66.1	66.1	66.1	77	58.7	1	4	112	0.00	29.783 
19:55	66.0	66.0	66.0	77	58.6	2	4	68	0.00	29.783 
20:00	66.0	66.0	66.0	77	58.6	1	3	68	0.00	29.781 
20:05	65.8	65.8	65.8	78	58.7	1	3	68	0.00	29.781 
20:10	65.8	65.8	65.8	78	58.7	1	5	112	0.00	29.781 
20:15	65.8	65.8	65.8	78	58.7	2	4	112	0.00	29.772 
20:20	65.8	65.8	65.8	78	58.7	1	5	68	0.00	29.772 
20:25	65.8	65.8	65.8	78	58.7	1	3	90	0.00	29.772 
20:30	65.8	65.8	65.8	78	58.7	1	3	135	0.00	29.769 
20:35	65.8	65.8	65.8	78	58.7	2	5	90	0.00	29.769 
20:40	65.8	65.8	65.8	77	58.4	1	3	112	0.00	29.769 
20:45	65.8	65.8	65.8	77	58.4	1	3	90	0.00	29.764 
20:50	65.8	65.8	65.8	77	58.4	1	4	68	0.00	29.764 
20:55	65.8	65.8	65.8	77	58.4	0	3	68	0.00	29.764 
21:00	65.8	65.8	65.8	76	58.0	1	3	68	0.00	29.762 
21:05	65.6	65.6	65.6	76	57.8	1	4	68	0.00	29.762 
21:10	65.6	65.6	65.6	76	57.8	1	2	68	0.00	29.762 
21:15	65.6	65.6	65.6	76	57.8	1	3	68	0.00	29.754 
21:20	65.6	65.6	65.6	76	57.8	1	4	112	0.00	29.754 
21:25	65.6	65.6	65.6	75	57.5	1	4	90	0.00	29.754 
21:30	65.6	65.6	65.6	75	57.5	1	5	90	0.00	29.758 
21:35	65.8	65.8	65.8	75	57.6	1	3	90	0.00	29.758 
21:40	65.8	65.8	65.8	75	57.6	0	2	90	0.00	29.758 
21:45	65.6	65.6	65.6	75	57.5	1	4	68	0.00	29.760 
21:50	65.6	65.6	65.6	75	57.5	0	2	68	0.00	29.760 
21:55	65.6	65.6	65.6	75	57.5	1	2	68	0.00	29.760 
22:00	65.6	65.6	65.6	75	57.5	0	4	68	0.00	29.754 
22:05	65.6	65.6	65.6	75	57.5	0	3	68	0.00	29.754 
22:10	65.6	65.6	65.6	76	57.8	1	3	68	0.00	29.754 
22:15	65.6	65.6	65.6	77	58.2	1	3	68	0.00	29.762 
22:20	65.5	65.5	65.5	79	58.8	0	3	68	0.00	29.762 
22:25	65.5	65.5	65.5	80	59.2	0	1	68	0.00	29.762 
22:30	65.3	65.3	65.3	81	59.3	0	1	68	0.00	29.778 
22:35	65.3	65.3	65.3	81	59.3	1	4	68	0.00	29.778 
22:40	65.2	65.2	65.2	81	59.2	1	4	68	0.00	29.778 
22:45	65.0	65.0	65.0	81	59.0	1	4	68	0.00	29.774 
22:50	65.0	65.0	65.0	81	59.0	1	2	68	0.00	29.774 
22:55	65.0	65.0	65.0	81	59.0	1	4	68	0.00	29.774 
23:00	64.8	64.8	64.8	81	58.8	1	3	68	0.00	29.776 
23:05	64.8	64.8	64.8	81	58.8	0	2	68	0.00	29.776 
23:10	64.7	64.7	64.7	82	59.1	0	2	68	0.00	29.776 
23:15	64.7	64.7	64.7	82	59.1	1	3	68	0.00	29.770 
23:20	64.7	64.7	64.7	82	59.1	0	2	68	0.00	29.770 
23:25	64.5	64.5	64.5	82	58.9	0	3	68	0.00	29.770 
23:30	64.5	64.5	64.5	82	58.9	0	1	68	0.00	29.772 
23:35	64.5	64.5	64.5	83	59.2	0	1	68	0.00	29.772 
23:40	64.5	64.5	64.5	83	59.2	0	0	---	0.00	29.772 
23:45	64.5	64.5	64.5	83	59.2	0	0	---	0.00	29.765 
23:50	64.5	64.5	64.5	83	59.2	0	1	68	0.00	29.765 
23:55	64.3	64.3	64.3	83	59.0	0	1	68	0.00	29.765 

CoCoRaHS
IN-AL-39
A2 Web Hosting
Creative Commons License
GoDaddy
search engine by freefind advanced

loaded 2018-11-15 05:09:29 • last modified 2010-11-18 10:43:29
Privacy PolicyDisclaimer
• wx.awcolley.com is powered by PmWiki v.2002016 •
• all content (unless otherwise noted) © 2018 A W Colley